Celebrity Infinity — 9HJD9 — position and weather

sailwx.info

Track history (hours):
 
Tides and Currents Weather Stations Pressure Air Temp Water Temp Dewpoint Dewpoint Depression Visibility Wind Speed Wind Dir Waves Ship Positions

Celebrity Infinity

Last reported at 2014-Aug-18 19:23 UTC. Time now 2014-Aug-21 12:09 UTC.
Position N 59°16' E 005°00'.

Length 294 m; draft 8.2 m.

Type: Ship. MMSI: 249048000.

Date/timePositionNaut miles runAvg speedWind from/ knotsBaromVisibWave heightAir tempDewpointWater temp
2014-Aug-18 19:23N 59°16' E 005°00'1215.0
2014-Aug-18 18:33N 59°06' E 005°15'1514.7
2014-Aug-18 17:33N 59°01' E 005°41'2 2.4
2014-Aug-18 16:33N 58°59' E 005°44'0 0.0
2014-Aug-18 15:29N 58°59' E 005°44'0 0.0
2014-Aug-18 14:32N 58°59' E 005°44'0 0.0
2014-Aug-18 13:31N 58°59' E 005°44'0 0.0
2014-Aug-18 12:31N 58°59' E 005°44'0 0.0
2014-Aug-18 11:33N 58°59' E 005°44'0 0.0
2014-Aug-18 10:33N 58°59' E 005°44'0 0.0
2014-Aug-18 09:33N 58°59' E 005°44'0 0.2
2014-Aug-18 08:33N 58°59' E 005°44'6 5.6
2014-Aug-18 07:33N 59°00' E 005°33'1414.1
2014-Aug-18 06:33N 58°47' E 005°24'1515.0
2014-Aug-18 05:33N 58°32' E 005°19'1515.2
2014-Aug-18 04:34N 58°18' E 005°31'610.7
2014-Aug-18 04:00N 58°12' E 005°30'1431.5 310 / 16993.0 5.4 2.014.0 17.8
2014-Aug-18 03:33N 58°07' E 005°54'14916.5
2014-Aug-17 18:33N 58°55' E 010°23'1514.6
2014-Aug-17 17:33N 59°08' E 010°37'1818.0
2014-Aug-17 16:33N 59°26' E 010°33'1515.0
2014-Aug-17 15:33N 59°41' E 010°37'1212.5
2014-Aug-17 14:34N 59°53' E 010°40'3 2.4
2014-Aug-17 13:26N 59°54' E 010°44'0 0.0
2014-Aug-17 12:32N 59°54' E 010°44'0 0.0
2014-Aug-17 11:29N 59°54' E 010°44'0 0.0
2014-Aug-17 10:31N 59°54' E 010°44'0 0.0
2014-Aug-17 09:31N 59°54' E 010°44'0 0.0
2014-Aug-17 08:33N 59°54' E 010°44'0 0.0
2014-Aug-17 07:33N 59°54' E 010°44'0 0.0
2014-Aug-17 06:23N 59°54' E 010°44'0 0.0
2014-Aug-17 05:32N 59°54' E 010°44'0 0.0
2014-Aug-17 04:33N 59°54' E 010°44'20 9.3
2014-Aug-17 02:24N 59°35' E 010°38'1417.0
2014-Aug-17 01:33N 59°20' E 010°36'1515.3
2014-Aug-17 00:33N 59°05' E 010°34'1313.3
2014-Aug-16 23:33N 58°53' E 010°25'50718.0
2014-Aug-15 19:21N 51°52' E 002°06'1518.5
2014-Aug-15 18:33N 51°50' E 001°43'1313.0
2014-Aug-15 17:33N 51°56' E 001°24'5 4.9
2014-Aug-15 16:31N 51°57' E 001°16'0 0.0
2014-Aug-15 15:33N 51°57' E 001°16'0 0.0
2014-Aug-15 14:33N 51°57' E 001°16'0 0.0
2014-Aug-15 13:32N 51°57' E 001°16'0 0.0
2014-Aug-15 12:32N 51°57' E 001°16'0 0.0
2014-Aug-15 11:32N 51°57' E 001°16'0 0.0
2014-Aug-15 10:31N 51°57' E 001°16'0 0.0
2014-Aug-15 09:34N 51°57' E 001°16'0 0.0
2014-Aug-15 08:31N 51°57' E 001°16'0 0.0
2014-Aug-15 07:31N 51°57' E 001°16'0 0.0
2014-Aug-15 06:31N 51°57' E 001°16'0 0.0
2014-Aug-15 05:33N 51°57' E 001°16'0 0.0
2014-Aug-15 04:33N 51°57' E 001°16'0 0.1
2014-Aug-15 03:33N 51°57' E 001°16'4 4.3
2014-Aug-15 02:33N 51°56' E 001°22'1212.4
2014-Aug-15 01:33N 51°51' E 001°41'1312.7
2014-Aug-15 00:34N 52°03' E 001°50'1414.5
2014-Aug-14 23:33N 52°16' E 002°00'1514.8
2014-Aug-14 22:34N 52°29' E 002°10'1515.2
2014-Aug-14 21:33N 52°43' E 002°22'1915.0
2014-Aug-14 20:16N 53°01' E 002°34'39614.8
2014-Aug-13 17:33N 58°57' W 002°37'1211.5
2014-Aug-13 16:33N 59°00' W 002°58'0 0.3
2014-Aug-13 15:31N 59°00' W 002°59'0 0.0
2014-Aug-13 14:33N 59°00' W 002°59'0 0.0
2014-Aug-13 13:33N 59°00' W 002°59'0 0.0
2014-Aug-13 12:32N 59°00' W 002°59'0 0.0
2014-Aug-13 11:32N 59°00' W 002°59'0 0.0
2014-Aug-13 10:32N 59°00' W 002°59'0 0.0
2014-Aug-13 09:31N 59°00' W 002°59'0 0.0
2014-Aug-13 08:31N 59°00' W 002°59'0 0.0
2014-Aug-13 07:33N 59°00' W 002°59'0 0.0
2014-Aug-13 06:33N 59°00' W 002°59'0 0.0
2014-Aug-13 05:32N 59°00' W 002°59'0 0.3
2014-Aug-13 04:33N 59°00' W 002°58'10 9.9
2014-Aug-13 03:33N 58°59' W 002°39'1212.0
2014-Aug-13 02:33N 58°47' W 002°47'1212.4
2014-Aug-13 01:33N 58°43' W 003°09'1212.0
2014-Aug-13 00:34N 58°43' W 003°32'1313.2
2014-Aug-12 23:33N 58°43' W 003°57'1313.4
2014-Aug-12 22:33N 58°42' W 004°23'1414.0
2014-Aug-12 21:33N 58°41' W 004°50'3014.9
2014-Aug-12 19:31N 58°20' W 005°32'1816.1
2014-Aug-12 18:25N 58°06' W 005°50'14214.4
2014-Aug-12 08:33N 55°48' W 006°57'1515.1
2014-Aug-12 07:33N 55°38' W 006°38'1716.6
2014-Aug-12 06:33N 55°27' W 006°16'1817.9
2014-Aug-12 05:33N 55°16' W 005°51'1918.1
2014-Aug-12 04:30N 55°19' W 005°18'2316.2
2014-Aug-12 03:04N 55°40' W 004°59'612.9
2014-Aug-12 02:33N 55°46' W 004°58'1413.5
2014-Aug-12 01:33N 55°58' W 004°46'1 0.6
2014-Aug-12 00:33N 55°57' W 004°46'0 0.0
2014-Aug-11 23:33N 55°57' W 004°46'0 0.0
2014-Aug-11 22:32N 55°57' W 004°46'0 0.0
2014-Aug-11 21:32N 55°57' W 004°46'0 0.0
2014-Aug-11 20:32N 55°57' W 004°46'0 0.0
2014-Aug-11 19:31N 55°57' W 004°46'0 0.0
2014-Aug-11 18:31N 55°57' W 004°46'0 0.0
2014-Aug-11 17:33N 55°57' W 004°46'0 0.0
2014-Aug-11 16:33N 55°57' W 004°46'0 0.0
2014-Aug-11 15:32N 55°57' W 004°46'0 0.0
2014-Aug-11 14:32N 55°57' W 004°46'0 0.0
2014-Aug-11 13:32N 55°57' W 004°46'0 0.0
2014-Aug-11 12:31N 55°57' W 004°46'0 0.0
2014-Aug-11 11:33N 55°57' W 004°46'0 0.0
2014-Aug-11 10:33N 55°57' W 004°46'0 0.0
2014-Aug-11 09:33N 55°57' W 004°46'0 0.0
2014-Aug-11 08:32N 55°57' W 004°46'0 0.0
2014-Aug-11 07:32N 55°57' W 004°46'0 0.0
2014-Aug-11 06:32N 55°57' W 004°46'0 0.0
2014-Aug-11 05:34N 55°57' W 004°46'5 5.4
2014-Aug-11 04:33N 55°56' W 004°55'1514.8
2014-Aug-11 03:33N 55°41' W 004°59'1611.5
2014-Aug-11 02:12N 55°25' W 004°58'711.1
2014-Aug-11 01:33N 55°21' W 005°07'1110.6
2014-Aug-11 00:32N 55°12' W 005°19'1111.5
2014-Aug-10 23:33N 55°01' W 005°24'1211.7
2014-Aug-10 22:33N 54°50' W 005°16'9 8.6
2014-Aug-10 21:33N 54°42' W 005°16'1212.2
2014-Aug-10 20:33N 54°43' W 005°37'1110.7
2014-Aug-10 19:33N 54°38' W 005°53'1 1.0
2014-Aug-10 18:19N 54°37' W 005°54'0 0.0
2014-Aug-10 17:31N 54°37' W 005°54'0 0.0
2014-Aug-10 15:30N 54°37' W 005°54'0 0.0
2014-Aug-10 14:27N 54°37' W 005°54'0 0.0
2014-Aug-10 13:23N 54°37' W 005°54'0 0.0
2014-Aug-10 11:13N 54°37' W 005°54'0 0.0
2014-Aug-10 09:27N 54°37' W 005°54'0 0.0
2014-Aug-10 08:28N 54°37' W 005°54'1 0.8
2014-Aug-10 07:32N 54°38' W 005°53'6 6.6
2014-Aug-10 06:33N 54°42' W 005°45'1111.1
2014-Aug-10 05:33N 54°43' W 005°26'1211.9
2014-Aug-10 04:33N 54°34' W 005°11'1211.7
2014-Aug-10 03:33N 54°26' W 004°58'1211.9
2014-Aug-10 02:33N 54°14' W 005°06'1110.9
2014-Aug-10 01:33N 54°04' W 005°13'56 8.8
2014-Aug-09 19:09N 53°21' W 006°13'0 0.0
2014-Aug-09 09:23N 53°21' W 006°13'0 0.1
2014-Aug-09 08:25N 53°21' W 006°13'6811.6
2014-Aug-09 02:32N 53°40' W 004°24'1212.6
2014-Aug-09 01:33N 53°37' W 004°03'1313.1
2014-Aug-09 00:33N 53°34' W 003°42'1312.9
2014-Aug-08 23:33N 53°33' W 003°20'  
Track history (hours):
 
Tides and Currents Weather Stations Pressure Air Temp Water Temp Dewpoint Dewpoint Depression Visibility Wind Speed Wind Dir Waves Ship Positions

Celebrity Infinity

Last reported at 2014-Aug-18 19:23 UTC. Time now 2014-Aug-21 12:09 UTC.
Position N 59°16' E 005°00'.

Length 294 m; draft 8.2 m.

Type: Ship. MMSI: 249048000.

Date/timePositionNaut miles runAvg speedWind from/ knotsBaromVisibWave heightAir tempDewpointWater temp
2014-Aug-18 19:23N 59°16' E 005°00'1215.0
2014-Aug-18 18:33N 59°06' E 005°15'1514.7
2014-Aug-18 17:33N 59°01' E 005°41'2 2.4
2014-Aug-18 16:33N 58°59' E 005°44'0 0.0
2014-Aug-18 15:29N 58°59' E 005°44'0 0.0
2014-Aug-18 14:32N 58°59' E 005°44'0 0.0
2014-Aug-18 13:31N 58°59' E 005°44'0 0.0
2014-Aug-18 12:31N 58°59' E 005°44'0 0.0
2014-Aug-18 11:33N 58°59' E 005°44'0 0.0
2014-Aug-18 10:33N 58°59' E 005°44'0 0.0
2014-Aug-18 09:33N 58°59' E 005°44'0 0.2
2014-Aug-18 08:33N 58°59' E 005°44'6 5.6
2014-Aug-18 07:33N 59°00' E 005°33'1414.1
2014-Aug-18 06:33N 58°47' E 005°24'1515.0
2014-Aug-18 05:33N 58°32' E 005°19'1515.2
2014-Aug-18 04:34N 58°18' E 005°31'610.7
2014-Aug-18 04:00N 58°12' E 005°30'1431.5 310 / 16993.0 5.4 2.014.0 17.8
2014-Aug-18 03:33N 58°07' E 005°54'14916.5
2014-Aug-17 18:33N 58°55' E 010°23'1514.6
2014-Aug-17 17:33N 59°08' E 010°37'1818.0
2014-Aug-17 16:33N 59°26' E 010°33'1515.0
2014-Aug-17 15:33N 59°41' E 010°37'1212.5
2014-Aug-17 14:34N 59°53' E 010°40'3 2.4
2014-Aug-17 13:26N 59°54' E 010°44'0 0.0
2014-Aug-17 12:32N 59°54' E 010°44'0 0.0
2014-Aug-17 11:29N 59°54' E 010°44'0 0.0
2014-Aug-17 10:31N 59°54' E 010°44'0 0.0
2014-Aug-17 09:31N 59°54' E 010°44'0 0.0
2014-Aug-17 08:33N 59°54' E 010°44'0 0.0
2014-Aug-17 07:33N 59°54' E 010°44'0 0.0
2014-Aug-17 06:23N 59°54' E 010°44'0 0.0
2014-Aug-17 05:32N 59°54' E 010°44'0 0.0
2014-Aug-17 04:33N 59°54' E 010°44'20 9.3
2014-Aug-17 02:24N 59°35' E 010°38'1417.0
2014-Aug-17 01:33N 59°20' E 010°36'1515.3
2014-Aug-17 00:33N 59°05' E 010°34'1313.3
2014-Aug-16 23:33N 58°53' E 010°25'50718.0
2014-Aug-15 19:21N 51°52' E 002°06'1518.5
2014-Aug-15 18:33N 51°50' E 001°43'1313.0
2014-Aug-15 17:33N 51°56' E 001°24'5 4.9
2014-Aug-15 16:31N 51°57' E 001°16'0 0.0
2014-Aug-15 15:33N 51°57' E 001°16'0 0.0
2014-Aug-15 14:33N 51°57' E 001°16'0 0.0
2014-Aug-15 13:32N 51°57' E 001°16'0 0.0
2014-Aug-15 12:32N 51°57' E 001°16'0 0.0
2014-Aug-15 11:32N 51°57' E 001°16'0 0.0
2014-Aug-15 10:31N 51°57' E 001°16'0 0.0
2014-Aug-15 09:34N 51°57' E 001°16'0 0.0
2014-Aug-15 08:31N 51°57' E 001°16'0 0.0
2014-Aug-15 07:31N 51°57' E 001°16'0 0.0
2014-Aug-15 06:31N 51°57' E 001°16'0 0.0
2014-Aug-15 05:33N 51°57' E 001°16'0 0.0
2014-Aug-15 04:33N 51°57' E 001°16'0 0.1
2014-Aug-15 03:33N 51°57' E 001°16'4 4.3
2014-Aug-15 02:33N 51°56' E 001°22'1212.4
2014-Aug-15 01:33N 51°51' E 001°41'1312.7
2014-Aug-15 00:34N 52°03' E 001°50'1414.5
2014-Aug-14 23:33N 52°16' E 002°00'1514.8
2014-Aug-14 22:34N 52°29' E 002°10'1515.2
2014-Aug-14 21:33N 52°43' E 002°22'1915.0
2014-Aug-14 20:16N 53°01' E 002°34'39614.8
2014-Aug-13 17:33N 58°57' W 002°37'1211.5
2014-Aug-13 16:33N 59°00' W 002°58'0 0.3
2014-Aug-13 15:31N 59°00' W 002°59'0 0.0
2014-Aug-13 14:33N 59°00' W 002°59'0 0.0
2014-Aug-13 13:33N 59°00' W 002°59'0 0.0
2014-Aug-13 12:32N 59°00' W 002°59'0 0.0
2014-Aug-13 11:32N 59°00' W 002°59'0 0.0
2014-Aug-13 10:32N 59°00' W 002°59'0 0.0
2014-Aug-13 09:31N 59°00' W 002°59'0 0.0
2014-Aug-13 08:31N 59°00' W 002°59'0 0.0
2014-Aug-13 07:33N 59°00' W 002°59'0 0.0
2014-Aug-13 06:33N 59°00' W 002°59'0 0.0
2014-Aug-13 05:32N 59°00' W 002°59'0 0.3
2014-Aug-13 04:33N 59°00' W 002°58'10 9.9
2014-Aug-13 03:33N 58°59' W 002°39'1212.0
2014-Aug-13 02:33N 58°47' W 002°47'1212.4
2014-Aug-13 01:33N 58°43' W 003°09'1212.0
2014-Aug-13 00:34N 58°43' W 003°32'1313.2
2014-Aug-12 23:33N 58°43' W 003°57'1313.4
2014-Aug-12 22:33N 58°42' W 004°23'1414.0
2014-Aug-12 21:33N 58°41' W 004°50'3014.9
2014-Aug-12 19:31N 58°20' W 005°32'1816.1
2014-Aug-12 18:25N 58°06' W 005°50'14214.4
2014-Aug-12 08:33N 55°48' W 006°57'1515.1
2014-Aug-12 07:33N 55°38' W 006°38'1716.6
2014-Aug-12 06:33N 55°27' W 006°16'1817.9
2014-Aug-12 05:33N 55°16' W 005°51'1918.1
2014-Aug-12 04:30N 55°19' W 005°18'2316.2
2014-Aug-12 03:04N 55°40' W 004°59'612.9
2014-Aug-12 02:33N 55°46' W 004°58'1413.5
2014-Aug-12 01:33N 55°58' W 004°46'1 0.6
2014-Aug-12 00:33N 55°57' W 004°46'0 0.0
2014-Aug-11 23:33N 55°57' W 004°46'0 0.0
2014-Aug-11 22:32N 55°57' W 004°46'0 0.0
2014-Aug-11 21:32N 55°57' W 004°46'0 0.0
2014-Aug-11 20:32N 55°57' W 004°46'0 0.0
2014-Aug-11 19:31N 55°57' W 004°46'0 0.0
2014-Aug-11 18:31N 55°57' W 004°46'0 0.0
2014-Aug-11 17:33N 55°57' W 004°46'0 0.0
2014-Aug-11 16:33N 55°57' W 004°46'0 0.0
2014-Aug-11 15:32N 55°57' W 004°46'0 0.0
2014-Aug-11 14:32N 55°57' W 004°46'0 0.0
2014-Aug-11 13:32N 55°57' W 004°46'0 0.0
2014-Aug-11 12:31N 55°57' W 004°46'0 0.0
2014-Aug-11 11:33N 55°57' W 004°46'0 0.0
2014-Aug-11 10:33N 55°57' W 004°46'0 0.0
2014-Aug-11 09:33N 55°57' W 004°46'0 0.0
2014-Aug-11 08:32N 55°57' W 004°46'0 0.0
2014-Aug-11 07:32N 55°57' W 004°46'0 0.0
2014-Aug-11 06:32N 55°57' W 004°46'0 0.0
2014-Aug-11 05:34N 55°57' W 004°46'5 5.4
2014-Aug-11 04:33N 55°56' W 004°55'1514.8
2014-Aug-11 03:33N 55°41' W 004°59'1611.5
2014-Aug-11 02:12N 55°25' W 004°58'711.1
2014-Aug-11 01:33N 55°21' W 005°07'1110.6
2014-Aug-11 00:32N 55°12' W 005°19'1111.5
2014-Aug-10 23:33N 55°01' W 005°24'1211.7
2014-Aug-10 22:33N 54°50' W 005°16'9 8.6
2014-Aug-10 21:33N 54°42' W 005°16'1212.2
2014-Aug-10 20:33N 54°43' W 005°37'1110.7
2014-Aug-10 19:33N 54°38' W 005°53'1 1.0
2014-Aug-10 18:19N 54°37' W 005°54'0 0.0
2014-Aug-10 17:31N 54°37' W 005°54'0 0.0
2014-Aug-10 15:30N 54°37' W 005°54'0 0.0
2014-Aug-10 14:27N 54°37' W 005°54'0 0.0
2014-Aug-10 13:23N 54°37' W 005°54'0 0.0
2014-Aug-10 11:13N 54°37' W 005°54'0 0.0
2014-Aug-10 09:27N 54°37' W 005°54'0 0.0
2014-Aug-10 08:28N 54°37' W 005°54'1 0.8
2014-Aug-10 07:32N 54°38' W 005°53'6 6.6
2014-Aug-10 06:33N 54°42' W 005°45'1111.1
2014-Aug-10 05:33N 54°43' W 005°26'1211.9
2014-Aug-10 04:33N 54°34' W 005°11'1211.7
2014-Aug-10 03:33N 54°26' W 004°58'1211.9
2014-Aug-10 02:33N 54°14' W 005°06'1110.9
2014-Aug-10 01:33N 54°04' W 005°13'56 8.8
2014-Aug-09 19:09N 53°21' W 006°13'0 0.0
2014-Aug-09 09:23N 53°21' W 006°13'0 0.1
2014-Aug-09 08:25N 53°21' W 006°13'6811.6
2014-Aug-09 02:32N 53°40' W 004°24'1212.6
2014-Aug-09 01:33N 53°37' W 004°03'1313.1
2014-Aug-09 00:33N 53°34' W 003°42'1312.9
2014-Aug-08 23:33N 53°33' W 003°20'  

Dump ship's entire track history